createdAt,value
2023-01-08T00:00:11.915Z,7.31
2023-01-08T00:01:13.655Z,7.31
2023-01-08T00:02:15.408Z,7.31
2023-01-08T00:03:17.235Z,7.32
2023-01-08T00:04:18.881Z,7.32
2023-01-08T00:05:20.578Z,7.33
2023-01-08T00:06:22.324Z,7.33
2023-01-08T00:07:24.069Z,7.33
2023-01-08T00:08:25.802Z,7.33
2023-01-08T00:09:27.510Z,7.33
2023-01-08T00:10:29.254Z,7.34
2023-01-08T00:11:30.994Z,7.34
2023-01-08T00:12:32.748Z,7.35
2023-01-08T00:13:34.446Z,7.35
2023-01-08T00:14:36.184Z,7.34
2023-01-08T00:15:37.929Z,7.36
2023-01-08T00:16:39.732Z,7.37
2023-01-08T00:17:41.412Z,7.38
2023-01-08T00:18:43.112Z,7.39
2023-01-08T00:19:44.859Z,7.42
2023-01-08T00:20:46.595Z,7.42
2023-01-08T00:21:48.407Z,7.43
2023-01-08T00:22:50.062Z,7.44
2023-01-08T00:23:51.774Z,7.46
2023-01-08T00:24:53.530Z,7.47
2023-01-08T00:25:55.263Z,7.48
2023-01-08T00:26:57.004Z,7.49
2023-01-08T00:27:58.721Z,7.5
2023-01-08T00:29:00.496Z,7.51
2023-01-08T00:30:04.076Z,7.51
2023-01-08T00:31:07.357Z,7.51
2023-01-08T00:32:07.522Z,7.52
2023-01-08T00:33:19.729Z,7.53
2023-01-08T00:34:21.307Z,7.53
2023-01-08T00:35:23.091Z,7.53
2023-01-08T00:36:24.797Z,7.53
2023-01-08T00:37:41.482Z,7.53
2023-01-08T00:38:43.288Z,7.54
2023-01-08T00:39:44.964Z,7.55
2023-01-08T00:40:46.687Z,7.55
2023-01-08T00:41:48.433Z,7.56
2023-01-08T00:42:50.193Z,7.56
2023-01-08T00:43:51.899Z,7.57
2023-01-08T00:44:53.603Z,7.58
2023-01-08T00:45:55.453Z,7.58
2023-01-08T00:46:57.094Z,7.59
2023-01-08T00:47:58.859Z,7.6
2023-01-08T00:49:00.588Z,7.61
2023-01-08T00:50:02.294Z,7.62
2023-01-08T00:51:04.063Z,7.64
2023-01-08T00:52:07.702Z,7.65
2023-01-08T00:53:07.492Z,7.65
2023-01-08T00:54:09.244Z,7.66
2023-01-08T00:55:10.965Z,7.66
2023-01-08T00:56:12.688Z,7.67
2023-01-08T00:57:14.431Z,7.69
2023-01-08T00:58:16.190Z,7.7
2023-01-08T00:59:17.886Z,7.71
2023-01-08T01:00:19.656Z,7.72
2023-01-08T01:01:21.507Z,7.73
2023-01-08T01:02:23.152Z,7.75
2023-01-08T01:03:24.813Z,7.76
2023-01-08T01:04:26.631Z,7.77
2023-01-08T01:05:28.300Z,7.78
2023-01-08T01:06:30.042Z,7.79
2023-01-08T01:07:31.764Z,7.81
2023-01-08T01:08:33.507Z,7.81
2023-01-08T01:09:35.236Z,7.82
2023-01-08T01:10:36.965Z,7.83
2023-01-08T01:11:38.701Z,7.85
2023-01-08T01:12:40.418Z,7.84
2023-01-08T01:13:42.153Z,7.85
2023-01-08T01:14:43.917Z,7.86
2023-01-08T01:15:45.627Z,7.87
2023-01-08T01:16:47.429Z,7.87
2023-01-08T01:17:49.078Z,7.88
2023-01-08T01:18:50.842Z,7.88
2023-01-08T01:19:52.573Z,7.89
2023-01-08T01:20:54.310Z,7.9
2023-01-08T01:21:56.014Z,7.9
2023-01-08T01:22:57.774Z,7.91
2023-01-08T01:23:59.474Z,7.91
2023-01-08T01:25:01.258Z,7.92
2023-01-08T01:26:04.476Z,7.92
2023-01-08T01:27:04.740Z,7.93
2023-01-08T01:28:06.420Z,7.93
2023-01-08T01:29:08.170Z,7.94
2023-01-08T01:30:09.895Z,7.95
2023-01-08T01:31:11.664Z,7.94
2023-01-08T01:32:13.365Z,7.95
2023-01-08T01:33:15.095Z,7.95
2023-01-08T01:34:16.815Z,7.95
2023-01-08T01:35:18.570Z,7.95
2023-01-08T01:36:20.296Z,7.96
2023-01-08T01:37:22.027Z,7.96
2023-01-08T01:38:23.748Z,7.98
2023-01-08T01:39:25.509Z,7.98
2023-01-08T01:40:27.234Z,7.98
2023-01-08T01:41:28.948Z,7.99
2023-01-08T01:42:30.692Z,7.99
2023-01-08T01:43:32.425Z,7.98
2023-01-08T01:44:34.164Z,7.99
2023-01-08T01:45:35.945Z,7.99
2023-01-08T01:46:37.626Z,7.99
2023-01-08T01:47:39.396Z,7.98
2023-01-08T01:48:41.091Z,8
2023-01-08T01:49:42.839Z,7.99
2023-01-08T01:50:44.560Z,8
2023-01-08T01:51:46.296Z,8.01
2023-01-08T01:52:48.017Z,8
2023-01-08T01:53:49.764Z,8.01
2023-01-08T01:54:51.530Z,8.01
2023-01-08T01:55:53.223Z,8.02
2023-01-08T01:56:54.956Z,8.02
2023-01-08T01:57:56.689Z,8.03
2023-01-08T01:58:58.422Z,8.04
2023-01-08T02:00:00.187Z,8.05
2023-01-08T02:01:01.996Z,8.05
2023-01-08T02:02:03.757Z,8.07
2023-01-08T02:03:05.368Z,8.08
2023-01-08T02:04:07.163Z,8.09
2023-01-08T02:05:08.833Z,8.1
2023-01-08T02:06:10.570Z,8.1
2023-01-08T02:07:12.288Z,8.11
2023-01-08T02:08:14.039Z,8.14
2023-01-08T02:09:15.777Z,8.14
2023-01-08T02:10:17.516Z,8.15
2023-01-08T02:11:19.265Z,8.15
2023-01-08T02:12:20.987Z,8.17
2023-01-08T02:13:22.710Z,8.17
2023-01-08T02:14:24.430Z,8.19
2023-01-08T02:15:26.179Z,8.2
2023-01-08T02:16:27.936Z,8.21
2023-01-08T02:17:29.628Z,8.22
2023-01-08T02:18:31.366Z,8.22
2023-01-08T02:19:33.105Z,8.23
2023-01-08T02:20:34.900Z,8.23
2023-01-08T02:21:36.588Z,8.22
2023-01-08T02:22:38.306Z,8.22
2023-01-08T02:23:40.037Z,8.22
2023-01-08T02:24:41.765Z,8.22
2023-01-08T02:25:43.523Z,8.23
2023-01-08T02:26:45.292Z,8.22
2023-01-08T02:27:46.992Z,8.21
2023-01-08T02:28:48.681Z,8.21
2023-01-08T02:29:50.441Z,8.21
2023-01-08T02:30:52.215Z,8.21
2023-01-08T02:31:53.926Z,8.2
2023-01-08T02:32:55.639Z,8.2
2023-01-08T02:33:57.354Z,8.2
2023-01-08T02:34:59.098Z,8.19
2023-01-08T02:36:00.831Z,8.17
2023-01-08T02:37:02.586Z,8.16
2023-01-08T02:38:04.315Z,8.17
2023-01-08T02:39:06.069Z,8.15
2023-01-08T02:40:07.773Z,8.15
2023-01-08T02:41:09.514Z,8.14
2023-01-08T02:42:11.255Z,8.13
2023-01-08T02:43:12.971Z,8.13
2023-01-08T02:44:14.699Z,8.14
2023-01-08T02:45:16.432Z,8.12
2023-01-08T02:46:18.280Z,8.13
2023-01-08T02:47:19.915Z,8.12
2023-01-08T02:48:21.652Z,8.12
2023-01-08T02:49:23.385Z,8.11
2023-01-08T02:50:25.128Z,8.1
2023-01-08T02:51:26.852Z,8.1
2023-01-08T02:52:28.568Z,8.09
2023-01-08T02:53:30.309Z,8.08
2023-01-08T02:54:32.040Z,8.08
2023-01-08T02:55:33.768Z,8.07
2023-01-08T02:56:35.508Z,8.06
2023-01-08T02:57:37.252Z,8.06
2023-01-08T02:58:38.985Z,8.05
2023-01-08T02:59:40.705Z,8.04
2023-01-08T03:00:42.479Z,8.04
2023-01-08T03:01:44.485Z,8.02
2023-01-08T03:02:46.140Z,8.01
2023-01-08T03:03:47.745Z,8.01
2023-01-08T03:04:49.381Z,7.99
2023-01-08T03:05:51.138Z,7.99
2023-01-08T03:06:52.873Z,7.97
2023-01-08T03:07:54.575Z,7.97
2023-01-08T03:08:56.316Z,7.96
2023-01-08T03:09:58.036Z,7.96
2023-01-08T03:10:59.782Z,7.94
2023-01-08T03:12:01.523Z,7.93
2023-01-08T03:13:03.364Z,7.92
2023-01-08T03:14:05.028Z,7.92
2023-01-08T03:15:06.732Z,7.91
2023-01-08T03:16:08.452Z,7.91
2023-01-08T03:17:10.196Z,7.89
2023-01-08T03:18:11.918Z,7.88
2023-01-08T03:19:13.643Z,7.87
2023-01-08T03:20:15.391Z,7.86
2023-01-08T03:21:17.104Z,7.85
2023-01-08T03:22:18.857Z,7.84
2023-01-08T03:23:20.588Z,7.83
2023-01-08T03:24:22.333Z,7.82
2023-01-08T03:25:24.044Z,7.82
2023-01-08T03:26:25.768Z,7.8
2023-01-08T03:27:27.518Z,7.79
2023-01-08T03:28:29.233Z,7.78
2023-01-08T03:29:30.967Z,7.77
2023-01-08T03:30:32.749Z,7.76
2023-01-08T03:31:34.439Z,7.74
2023-01-08T03:32:36.204Z,7.75
2023-01-08T03:33:37.930Z,7.73
2023-01-08T03:34:39.644Z,7.72
2023-01-08T03:35:41.376Z,7.72
2023-01-08T03:36:43.136Z,7.71
2023-01-08T03:37:44.856Z,7.7
2023-01-08T03:38:46.571Z,7.69
2023-01-08T03:39:48.335Z,7.68
2023-01-08T03:40:50.068Z,7.67
2023-01-08T03:41:51.782Z,7.66
2023-01-08T03:42:53.519Z,7.66
2023-01-08T03:43:55.267Z,7.65
2023-01-08T03:44:56.997Z,7.64
2023-01-08T03:45:58.769Z,7.64
2023-01-08T03:47:00.449Z,7.64
2023-01-08T03:48:02.209Z,7.64
2023-01-08T03:49:03.927Z,7.63
2023-01-08T03:50:05.661Z,7.63
2023-01-08T03:51:07.397Z,7.63
2023-01-08T03:52:09.128Z,7.62
2023-01-08T03:53:10.890Z,7.62
2023-01-08T03:54:12.609Z,7.62
2023-01-08T03:55:14.337Z,7.61
2023-01-08T03:56:16.066Z,7.61
2023-01-08T03:57:17.959Z,7.61
2023-01-08T03:58:19.541Z,7.6
2023-01-08T03:59:21.274Z,7.61
2023-01-08T04:00:22.986Z,7.59
2023-01-08T04:01:24.845Z,7.6
2023-01-08T04:02:26.718Z,7.59
2023-01-08T04:03:28.254Z,7.58
2023-01-08T04:04:30.000Z,7.58
2023-01-08T04:05:31.661Z,7.57
2023-01-08T04:06:33.399Z,7.57
2023-01-08T04:07:35.137Z,7.56
2023-01-08T04:08:36.866Z,7.57
2023-01-08T04:09:38.600Z,7.55
2023-01-08T04:10:40.341Z,7.55
2023-01-08T04:11:42.064Z,7.54
2023-01-08T04:12:43.829Z,7.53
2023-01-08T04:13:45.558Z,7.54
2023-01-08T04:14:47.274Z,7.53
2023-01-08T04:15:49.081Z,7.52
2023-01-08T04:16:50.746Z,7.52
2023-01-08T04:17:52.491Z,7.5
2023-01-08T04:18:54.243Z,7.5
2023-01-08T04:19:55.960Z,7.49
2023-01-08T04:20:57.672Z,7.5
2023-01-08T04:21:59.400Z,7.49
2023-01-08T04:23:01.153Z,7.49
2023-01-08T04:24:02.866Z,7.48
2023-01-08T04:25:04.609Z,7.49
2023-01-08T04:26:06.335Z,7.48
2023-01-08T04:27:08.059Z,7.47
2023-01-08T04:28:09.797Z,7.46
2023-01-08T04:29:11.564Z,7.46
2023-01-08T04:30:13.268Z,7.46
2023-01-08T04:31:15.086Z,7.45
2023-01-08T04:32:16.751Z,7.45
2023-01-08T04:33:18.491Z,7.45
2023-01-08T04:34:20.200Z,7.45
2023-01-08T04:35:21.936Z,7.45
2023-01-08T04:36:23.665Z,7.44
2023-01-08T04:37:25.409Z,7.45
2023-01-08T04:38:27.163Z,7.44
2023-01-08T04:39:28.923Z,7.44
2023-01-08T04:40:30.615Z,7.44
2023-01-08T04:41:32.361Z,7.45
2023-01-08T04:42:34.079Z,7.45
2023-01-08T04:43:35.846Z,7.45
2023-01-08T04:44:37.542Z,7.45
2023-01-08T04:45:39.269Z,7.46
2023-01-08T04:46:41.119Z,7.46
2023-01-08T04:47:42.736Z,7.47
2023-01-08T04:48:44.488Z,7.47
2023-01-08T04:49:46.224Z,7.48
2023-01-08T04:50:47.968Z,7.5
2023-01-08T04:51:49.680Z,7.5
2023-01-08T04:52:51.402Z,7.51
2023-01-08T04:53:53.155Z,7.51
2023-01-08T04:54:54.879Z,7.52
2023-01-08T04:55:56.627Z,7.52
2023-01-08T04:56:58.356Z,7.53
2023-01-08T04:58:00.096Z,7.54
2023-01-08T04:59:01.828Z,7.54
2023-01-08T05:00:03.550Z,7.55
2023-01-08T05:01:05.268Z,7.55
2023-01-08T05:02:07.240Z,7.56
2023-01-08T05:03:08.791Z,7.56
2023-01-08T05:04:10.488Z,7.56
2023-01-08T05:05:12.217Z,7.56
2023-01-08T05:06:13.928Z,7.58
2023-01-08T05:07:15.672Z,7.58
2023-01-08T05:08:17.410Z,7.58
2023-01-08T05:09:19.166Z,7.58
2023-01-08T05:10:20.896Z,7.59
2023-01-08T05:11:22.632Z,7.58
2023-01-08T05:12:24.356Z,7.59
2023-01-08T05:13:26.079Z,7.59
2023-01-08T05:14:27.830Z,7.59
2023-01-08T05:15:29.651Z,7.59
2023-01-08T05:16:31.281Z,7.58
2023-01-08T05:17:33.014Z,7.58
2023-01-08T05:18:34.761Z,7.58
2023-01-08T05:19:38.313Z,7.58
2023-01-08T05:20:38.221Z,7.57
2023-01-08T05:21:39.951Z,7.57
2023-01-08T05:22:41.691Z,7.57
2023-01-08T05:23:43.419Z,7.56
2023-01-08T05:24:45.176Z,7.55
2023-01-08T05:25:46.880Z,7.55
2023-01-08T05:26:48.624Z,7.54
2023-01-08T05:27:50.378Z,7.54
2023-01-08T05:28:52.091Z,7.53
2023-01-08T05:29:53.836Z,7.54
2023-01-08T05:30:55.678Z,7.53
2023-01-08T05:31:57.315Z,7.52
2023-01-08T05:32:59.026Z,7.51
2023-01-08T05:34:00.772Z,7.51
2023-01-08T05:35:02.507Z,7.5
2023-01-08T05:36:04.228Z,7.48
2023-01-08T05:37:05.948Z,7.48
2023-01-08T05:38:07.679Z,7.47
2023-01-08T05:39:09.417Z,7.45
2023-01-08T05:40:11.161Z,7.45
2023-01-08T05:41:12.901Z,7.43
2023-01-08T05:42:14.626Z,7.42
2023-01-08T05:43:16.353Z,7.41
2023-01-08T05:44:18.091Z,7.39
2023-01-08T05:45:19.885Z,7.38
2023-01-08T05:46:21.617Z,7.37
2023-01-08T05:47:23.298Z,7.36
2023-01-08T05:48:25.019Z,7.35
2023-01-08T05:49:26.762Z,7.34
2023-01-08T05:50:28.532Z,7.33
2023-01-08T05:51:30.244Z,7.32
2023-01-08T05:52:31.966Z,7.31
2023-01-08T05:53:33.708Z,7.31
2023-01-08T05:54:35.424Z,7.3
2023-01-08T05:55:37.175Z,7.28
2023-01-08T05:56:38.912Z,7.27
2023-01-08T05:57:40.643Z,7.26
2023-01-08T05:58:42.398Z,7.25
2023-01-08T05:59:44.099Z,7.25
2023-01-08T06:00:45.856Z,7.25
2023-01-08T06:01:47.626Z,7.24
2023-01-08T06:02:49.548Z,7.24
2023-01-08T06:03:51.120Z,7.23
2023-01-08T06:04:52.773Z,7.24
2023-01-08T06:05:54.517Z,7.22
2023-01-08T06:06:56.235Z,7.22
2023-01-08T06:07:57.958Z,7.22
2023-01-08T06:08:59.699Z,7.21
2023-01-08T06:10:01.419Z,7.21
2023-01-08T06:11:03.189Z,7.19
2023-01-08T06:12:04.903Z,7.19
2023-01-08T06:13:06.645Z,7.18
2023-01-08T06:14:08.379Z,7.19
2023-01-08T06:15:10.091Z,7.18
2023-01-08T06:16:11.926Z,7.17
2023-01-08T06:17:13.562Z,7.16
2023-01-08T06:18:15.306Z,7.16
2023-01-08T06:19:17.045Z,7.15
2023-01-08T06:20:18.779Z,7.15
2023-01-08T06:21:20.523Z,7.14
2023-01-08T06:22:22.243Z,7.14
2023-01-08T06:23:23.969Z,7.14
2023-01-08T06:24:25.738Z,7.13
2023-01-08T06:25:27.428Z,7.12
2023-01-08T06:26:29.184Z,7.11
2023-01-08T06:27:30.896Z,7.1
2023-01-08T06:28:32.648Z,7.1
2023-01-08T06:29:34.373Z,7.11
2023-01-08T06:30:36.101Z,7.1
2023-01-08T06:31:37.911Z,7.09
2023-01-08T06:32:39.566Z,7.09
2023-01-08T06:33:41.304Z,7.09
2023-01-08T06:34:43.049Z,7.07
2023-01-08T06:35:44.772Z,7.08
2023-01-08T06:36:46.519Z,7.08
2023-01-08T06:37:48.239Z,7.07
2023-01-08T06:38:49.970Z,7.06
2023-01-08T06:39:51.702Z,7.06
2023-01-08T06:40:53.459Z,7.06
2023-01-08T06:41:55.258Z,7.05
2023-01-08T06:42:56.910Z,7.06
2023-01-08T06:43:58.671Z,7.06
2023-01-08T06:45:00.382Z,7.06
2023-01-08T06:46:02.107Z,7.05
2023-01-08T06:47:03.880Z,7.05
2023-01-08T06:48:05.581Z,7.05
2023-01-08T06:49:07.321Z,7.04
2023-01-08T06:50:09.043Z,7.03
2023-01-08T06:51:10.801Z,7.03
2023-01-08T06:52:12.535Z,7.02
2023-01-08T06:53:14.265Z,7.02
2023-01-08T06:54:15.989Z,7.01
2023-01-08T06:55:17.766Z,7
2023-01-08T06:56:19.472Z,6.99
2023-01-08T06:57:21.205Z,6.99
2023-01-08T06:58:22.932Z,6.98
2023-01-08T06:59:24.656Z,6.97
2023-01-08T07:00:26.386Z,6.96
2023-01-08T07:01:28.282Z,6.97
2023-01-08T07:02:30.167Z,6.97
2023-01-08T07:03:31.646Z,6.96
2023-01-08T07:04:33.325Z,6.96
2023-01-08T07:05:35.042Z,6.96
2023-01-08T07:06:36.779Z,6.95
2023-01-08T07:07:38.525Z,6.95
2023-01-08T07:08:40.243Z,6.95
2023-01-08T07:09:42.002Z,6.96
2023-01-08T07:10:43.727Z,6.95
2023-01-08T07:11:45.461Z,6.95
2023-01-08T07:12:47.184Z,6.95
2023-01-08T07:13:48.921Z,6.94
2023-01-08T07:14:50.670Z,6.95
2023-01-08T07:15:52.538Z,6.95
2023-01-08T07:16:54.128Z,6.95
2023-01-08T07:17:55.875Z,6.95
2023-01-08T07:18:57.585Z,6.94
2023-01-08T07:19:59.318Z,6.94
2023-01-08T07:21:01.046Z,6.94
2023-01-08T07:22:02.774Z,6.94
2023-01-08T07:23:04.546Z,6.94
2023-01-08T07:24:06.268Z,6.94
2023-01-08T07:25:07.980Z,6.93
2023-01-08T07:26:09.731Z,6.94
2023-01-08T07:27:11.481Z,6.94
2023-01-08T07:28:13.213Z,6.94
2023-01-08T07:29:14.922Z,6.93
2023-01-08T07:30:28.814Z,6.94
2023-01-08T07:31:18.416Z,6.93
2023-01-08T07:32:20.118Z,6.93
2023-01-08T07:33:21.938Z,6.93
2023-01-08T07:34:23.634Z,6.93
2023-01-08T07:35:25.340Z,6.92
2023-01-08T07:36:27.082Z,6.93
2023-01-08T07:37:28.799Z,6.92
2023-01-08T07:38:30.543Z,6.93
2023-01-08T07:39:32.256Z,6.92
2023-01-08T07:40:34.014Z,6.92
2023-01-08T07:41:35.740Z,6.92
2023-01-08T07:42:37.454Z,6.92
2023-01-08T07:43:39.389Z,6.91
2023-01-08T07:44:40.962Z,6.92
2023-01-08T07:45:42.675Z,6.91
2023-01-08T07:46:44.448Z,6.91
2023-01-08T07:47:46.126Z,6.92
2023-01-08T07:48:47.905Z,6.92
2023-01-08T07:49:49.613Z,6.92
2023-01-08T07:50:51.334Z,6.92
2023-01-08T07:51:53.074Z,6.92
2023-01-08T07:52:54.823Z,6.93
2023-01-08T07:53:56.634Z,6.93
2023-01-08T07:54:58.279Z,6.94
2023-01-08T07:56:00.030Z,6.93
2023-01-08T07:57:01.737Z,6.94
2023-01-08T07:58:03.461Z,6.94
2023-01-08T07:59:05.234Z,6.94
2023-01-08T08:00:06.951Z,6.95
2023-01-08T08:01:08.720Z,6.95
2023-01-08T08:02:10.571Z,6.94
2023-01-08T08:03:12.247Z,6.95
2023-01-08T08:04:13.874Z,6.96
2023-01-08T08:05:15.627Z,6.96
2023-01-08T08:06:17.368Z,6.96
2023-01-08T08:07:19.100Z,6.96
2023-01-08T08:08:20.853Z,6.96
2023-01-08T08:09:22.547Z,6.97
2023-01-08T08:10:24.279Z,6.97
2023-01-08T08:11:26.009Z,6.97
2023-01-08T08:12:27.760Z,6.97
2023-01-08T08:13:29.474Z,6.99
2023-01-08T08:14:31.226Z,6.99
2023-01-08T08:15:32.965Z,7
2023-01-08T08:16:34.938Z,6.99
2023-01-08T08:17:36.412Z,7
2023-01-08T08:18:38.152Z,7.01
2023-01-08T08:19:39.900Z,7
2023-01-08T08:20:41.602Z,7.02
2023-01-08T08:21:43.350Z,7.02
2023-01-08T08:22:45.080Z,7.03
2023-01-08T08:23:46.795Z,7.03
2023-01-08T08:24:48.593Z,7.05
2023-01-08T08:25:50.290Z,7.04
2023-01-08T08:26:52.012Z,7.05
2023-01-08T08:27:53.740Z,7.05
2023-01-08T08:28:55.494Z,7.06
2023-01-08T08:29:57.217Z,7.07
2023-01-08T08:30:59.179Z,7.05
2023-01-08T08:32:00.677Z,7.06
2023-01-08T08:33:02.443Z,7.07
2023-01-08T08:34:04.149Z,7.07
2023-01-08T08:35:05.918Z,7.08
2023-01-08T08:36:07.696Z,7.07
2023-01-08T08:37:09.362Z,7.08
2023-01-08T08:38:11.084Z,7.08
2023-01-08T08:39:12.813Z,7.08
2023-01-08T08:40:14.559Z,7.07
2023-01-08T08:41:16.262Z,7.06
2023-01-08T08:42:18.021Z,7.07
2023-01-08T08:43:19.747Z,7.07
2023-01-08T08:44:21.531Z,7.07
2023-01-08T08:45:23.221Z,7.07
2023-01-08T08:46:25.211Z,7.07
2023-01-08T08:47:26.750Z,7.06
2023-01-08T08:48:28.411Z,7.05
2023-01-08T08:49:30.122Z,7.06
2023-01-08T08:50:31.929Z,7.05
2023-01-08T08:51:33.603Z,7.05
2023-01-08T08:52:35.336Z,7.04
2023-01-08T08:53:37.127Z,7.04
2023-01-08T08:54:38.879Z,7.04
2023-01-08T08:55:40.567Z,7.04
2023-01-08T08:56:42.301Z,7.04
2023-01-08T08:57:44.013Z,7.03
2023-01-08T08:58:45.745Z,7.02
2023-01-08T08:59:47.471Z,7.02
2023-01-08T09:00:49.232Z,7.02
2023-01-08T09:01:51.202Z,7.02
2023-01-08T09:02:52.867Z,7.02
2023-01-08T09:03:54.447Z,7.02
2023-01-08T09:04:56.150Z,7.01
2023-01-08T09:05:59.833Z,7.01
2023-01-08T09:06:59.669Z,7
2023-01-08T09:08:01.381Z,7.01
2023-01-08T09:09:03.093Z,7.01
2023-01-08T09:10:04.832Z,7.02
2023-01-08T09:11:06.543Z,7.01
2023-01-08T09:12:08.292Z,7.02
2023-01-08T09:13:10.047Z,7.02
2023-01-08T09:14:11.760Z,7.03
2023-01-08T09:15:13.491Z,7.03
2023-01-08T09:16:15.349Z,7.04
2023-01-08T09:17:16.946Z,7.04
2023-01-08T09:18:18.695Z,7.04
2023-01-08T09:19:20.432Z,7.05
2023-01-08T09:20:22.159Z,7.05
2023-01-08T09:21:23.912Z,7.05
2023-01-08T09:22:25.623Z,7.04
2023-01-08T09:23:27.380Z,7.04
2023-01-08T09:24:29.094Z,7.03
2023-01-08T09:25:30.841Z,7.02
2023-01-08T09:26:32.575Z,7.02
2023-01-08T09:27:34.291Z,7.02
2023-01-08T09:28:36.034Z,7.01
2023-01-08T09:29:37.756Z,7.01
2023-01-08T09:30:39.489Z,7.01
2023-01-08T09:31:41.315Z,7
2023-01-08T09:32:42.966Z,7
2023-01-08T09:33:44.702Z,7
2023-01-08T09:34:46.425Z,6.99
2023-01-08T09:35:48.160Z,7
2023-01-08T09:36:49.889Z,7
2023-01-08T09:37:51.628Z,7
2023-01-08T09:38:53.371Z,7
2023-01-08T09:40:02.186Z,7.02
2023-01-08T09:41:01.975Z,7.02
2023-01-08T09:42:03.713Z,7.03
2023-01-08T09:43:05.436Z,7.05
2023-01-08T09:44:07.180Z,7.06
2023-01-08T09:45:08.913Z,7.08
2023-01-08T09:46:10.663Z,7.1
2023-01-08T09:47:12.398Z,7.12
2023-01-08T09:48:14.129Z,7.14
2023-01-08T09:49:15.847Z,7.15
2023-01-08T09:50:17.585Z,7.17
2023-01-08T09:51:19.328Z,7.2
2023-01-08T09:52:21.024Z,7.22
2023-01-08T09:53:22.827Z,7.24
2023-01-08T09:54:24.578Z,7.25
2023-01-08T09:55:26.239Z,7.27
2023-01-08T09:56:27.963Z,7.28
2023-01-08T09:57:29.716Z,7.31
2023-01-08T09:58:31.435Z,7.32
2023-01-08T09:59:33.171Z,7.34
2023-01-08T10:00:34.960Z,7.35
2023-01-08T10:01:36.986Z,7.37
2023-01-08T10:02:38.627Z,7.38
2023-01-08T10:03:40.137Z,7.4
2023-01-08T10:04:41.843Z,7.42
2023-01-08T10:05:43.576Z,7.43
2023-01-08T10:06:45.322Z,7.45
2023-01-08T10:07:47.047Z,7.46
2023-01-08T10:08:48.835Z,7.46
2023-01-08T10:09:50.505Z,7.47
2023-01-08T10:10:52.247Z,7.49
2023-01-08T10:11:53.963Z,7.5
2023-01-08T10:12:55.724Z,7.51
2023-01-08T10:13:57.448Z,7.52
2023-01-08T10:14:59.239Z,7.53
2023-01-08T10:16:00.929Z,7.55
2023-01-08T10:17:02.630Z,7.55
2023-01-08T10:18:04.397Z,7.57
2023-01-08T10:19:06.128Z,7.57
2023-01-08T10:20:07.837Z,7.58
2023-01-08T10:21:09.608Z,7.59
2023-01-08T10:22:11.338Z,7.59
2023-01-08T10:23:13.044Z,7.59
2023-01-08T10:24:14.775Z,7.6
2023-01-08T10:25:16.503Z,7.61
2023-01-08T10:26:18.227Z,7.61
2023-01-08T10:27:19.953Z,7.62
2023-01-08T10:28:21.686Z,7.61
2023-01-08T10:29:23.395Z,7.63
2023-01-08T10:30:25.144Z,7.63
2023-01-08T10:31:26.916Z,7.65
2023-01-08T10:32:28.561Z,7.65
2023-01-08T10:33:30.300Z,7.66
2023-01-08T10:34:32.069Z,7.67
2023-01-08T10:35:33.790Z,7.69
2023-01-08T10:36:35.538Z,7.71
2023-01-08T10:37:37.244Z,7.73
2023-01-08T10:38:38.981Z,7.76
2023-01-08T10:39:40.750Z,7.8
2023-01-08T10:40:42.456Z,7.82
2023-01-08T10:41:44.181Z,7.85
2023-01-08T10:42:45.904Z,7.89
2023-01-08T10:43:47.647Z,7.96
2023-01-08T10:44:49.379Z,8.03
2023-01-08T10:45:51.203Z,8.08
2023-01-08T10:46:52.843Z,8.18
2023-01-08T10:47:54.593Z,8.24
2023-01-08T10:48:56.336Z,8.28
2023-01-08T10:49:58.053Z,8.32
2023-01-08T10:50:59.791Z,8.35
2023-01-08T10:52:01.525Z,8.37
2023-01-08T10:53:03.262Z,8.38
2023-01-08T10:54:04.967Z,8.41
2023-01-08T10:55:06.720Z,8.45
2023-01-08T10:56:08.452Z,8.44
2023-01-08T10:57:10.170Z,8.45
2023-01-08T10:58:11.905Z,8.45
2023-01-08T10:59:13.646Z,8.43
2023-01-08T11:00:15.381Z,8.43
2023-01-08T11:01:17.388Z,8.42
2023-01-08T11:02:18.883Z,8.41
2023-01-08T11:03:20.591Z,8.4
2023-01-08T11:04:22.314Z,8.4
2023-01-08T11:05:24.062Z,8.41
2023-01-08T11:06:25.787Z,8.42
2023-01-08T11:07:27.560Z,8.43
2023-01-08T11:08:29.271Z,8.44
2023-01-08T11:09:30.997Z,8.47
2023-01-08T11:10:32.717Z,8.48
2023-01-08T11:11:34.441Z,8.49
2023-01-08T11:12:36.202Z,8.51
2023-01-08T11:13:37.934Z,8.5
2023-01-08T11:14:39.649Z,8.51
2023-01-08T11:15:41.381Z,8.5
2023-01-08T11:16:43.119Z,8.5
2023-01-08T11:17:44.860Z,8.5
2023-01-08T11:18:46.630Z,8.49
2023-01-08T11:19:48.312Z,8.49
2023-01-08T11:20:50.074Z,8.48
2023-01-08T11:21:51.787Z,8.47
2023-01-08T11:22:53.509Z,8.46
2023-01-08T11:23:55.270Z,8.44
2023-01-08T11:24:56.989Z,8.42
2023-01-08T11:25:58.726Z,8.41
2023-01-08T11:27:00.453Z,8.4
2023-01-08T11:28:02.208Z,8.38
2023-01-08T11:29:03.922Z,8.36
2023-01-08T11:30:05.660Z,8.35
2023-01-08T11:31:07.399Z,8.33
2023-01-08T11:32:09.141Z,8.33
2023-01-08T11:33:10.860Z,8.33
2023-01-08T11:34:12.585Z,8.32
2023-01-08T11:35:14.329Z,8.32
2023-01-08T11:36:16.051Z,8.31
2023-01-08T11:37:17.775Z,8.3
2023-01-08T11:38:19.539Z,8.28
2023-01-08T11:39:21.252Z,8.25
2023-01-08T11:40:23.001Z,8.22
2023-01-08T11:41:25.670Z,8.2
2023-01-08T11:42:26.469Z,8.19
2023-01-08T11:43:28.199Z,8.15
2023-01-08T11:44:29.909Z,8.14
2023-01-08T11:45:31.705Z,8.13
2023-01-08T11:46:33.377Z,8.13
2023-01-08T11:47:35.133Z,8.12
2023-01-08T11:48:36.871Z,8.13
2023-01-08T11:49:38.574Z,8.15
2023-01-08T11:50:40.327Z,8.16
2023-01-08T11:51:42.054Z,8.19
2023-01-08T11:52:43.769Z,8.2
2023-01-08T11:53:45.541Z,8.22
2023-01-08T11:54:47.243Z,8.25
2023-01-08T11:55:48.993Z,8.26
2023-01-08T11:56:50.749Z,8.28
2023-01-08T11:57:52.458Z,8.29
2023-01-08T11:58:54.203Z,8.27
2023-01-08T11:59:55.917Z,8.26
2023-01-08T12:00:57.646Z,8.25
2023-01-08T12:01:59.476Z,8.22
2023-01-08T12:03:01.182Z,8.19
2023-01-08T12:04:02.889Z,8.18
2023-01-08T12:05:04.596Z,8.15
2023-01-08T12:06:06.317Z,8.14
2023-01-08T12:07:08.071Z,8.11
2023-01-08T12:08:09.802Z,8.1
2023-01-08T12:09:11.559Z,8.09
2023-01-08T12:10:13.264Z,8.06
2023-01-08T12:11:14.991Z,8.05
2023-01-08T12:12:16.765Z,8.04
2023-01-08T12:13:18.467Z,8.04
2023-01-08T12:14:20.201Z,8.03
2023-01-08T12:15:21.924Z,8.02
2023-01-08T12:16:23.796Z,8.02
2023-01-08T12:17:25.382Z,8.02
2023-01-08T12:18:27.108Z,8.02
2023-01-08T12:19:28.885Z,8.03
2023-01-08T12:20:30.580Z,8.04
2023-01-08T12:21:32.323Z,8.03
2023-01-08T12:22:34.044Z,8.05
2023-01-08T12:23:35.779Z,8.05
2023-01-08T12:24:37.555Z,8.07
2023-01-08T12:25:39.237Z,8.08
2023-01-08T12:26:40.976Z,8.08
2023-01-08T12:27:56.446Z,8.08
2023-01-08T12:28:44.465Z,8.1
2023-01-08T12:29:46.212Z,8.12
2023-01-08T12:30:47.933Z,8.14
2023-01-08T12:32:01.881Z,8.17
2023-01-08T12:32:51.394Z,8.18
2023-01-08T12:33:53.132Z,8.2
2023-01-08T12:34:54.871Z,8.22
2023-01-08T12:35:56.597Z,8.23
2023-01-08T12:36:58.315Z,8.24
2023-01-08T12:38:00.050Z,8.25
2023-01-08T12:39:01.775Z,8.25
2023-01-08T12:40:03.544Z,8.25
2023-01-08T12:41:05.305Z,8.26
2023-01-08T12:42:07.009Z,8.25
2023-01-08T12:43:08.711Z,8.26
2023-01-08T12:44:10.468Z,8.25
2023-01-08T12:45:12.216Z,8.27
2023-01-08T12:46:14.000Z,8.26
2023-01-08T12:47:15.682Z,8.27
2023-01-08T12:48:17.387Z,8.27
2023-01-08T12:49:19.142Z,8.28
2023-01-08T12:50:20.932Z,8.27
2023-01-08T12:51:22.603Z,8.28
2023-01-08T12:52:24.356Z,8.28
2023-01-08T12:53:26.056Z,8.28
2023-01-08T12:54:27.807Z,8.28
2023-01-08T12:55:29.555Z,8.28
2023-01-08T12:56:31.263Z,8.28
2023-01-08T12:57:33.015Z,8.27
2023-01-08T12:58:34.740Z,8.26
2023-01-08T12:59:36.455Z,8.26
2023-01-08T13:00:38.236Z,8.25
2023-01-08T13:01:42.326Z,8.25
2023-01-08T13:02:41.723Z,8.25
2023-01-08T13:03:43.442Z,8.24
2023-01-08T13:04:45.161Z,8.25
2023-01-08T13:05:46.920Z,8.25
2023-01-08T13:06:48.643Z,8.24
2023-01-08T13:07:50.432Z,8.24
2023-01-08T13:08:52.082Z,8.23
2023-01-08T13:09:53.808Z,8.24
2023-01-08T13:10:55.555Z,8.24
2023-01-08T13:11:57.247Z,8.22
2023-01-08T13:12:59.016Z,8.21
2023-01-08T13:14:00.721Z,8.19
2023-01-08T13:15:02.446Z,8.16
2023-01-08T13:16:04.267Z,8.14
2023-01-08T13:17:05.924Z,8.14
2023-01-08T13:18:07.652Z,8.14
2023-01-08T13:19:09.387Z,8.11
2023-01-08T13:20:11.115Z,8.1
2023-01-08T13:21:12.862Z,8.1
2023-01-08T13:22:14.570Z,8.09
2023-01-08T13:23:16.290Z,8.07
2023-01-08T13:24:18.053Z,8.07
2023-01-08T13:25:19.776Z,8.06
2023-01-08T13:26:21.519Z,8.05
2023-01-08T13:27:23.291Z,8.03
2023-01-08T13:28:24.974Z,8.03
2023-01-08T13:29:26.713Z,8.01
2023-01-08T13:30:30.697Z,8
2023-01-08T13:31:30.230Z,8.01
2023-01-08T13:32:31.960Z,8
2023-01-08T13:33:33.663Z,8
2023-01-08T13:34:35.392Z,7.98
2023-01-08T13:35:39.025Z,7.97
2023-01-08T13:36:38.850Z,7.97
2023-01-08T13:37:40.598Z,7.96
2023-01-08T13:38:42.330Z,7.95
2023-01-08T13:39:44.068Z,7.95
2023-01-08T13:40:47.311Z,7.95
2023-01-08T13:41:47.541Z,7.93
2023-01-08T13:42:49.251Z,7.94
2023-01-08T13:43:50.980Z,7.95
2023-01-08T13:44:52.748Z,7.94